Time;durP1;ratioP1;P1;durP2;ratioP2;P2;SDS_P1;SDS_P2;PMS_P1;PMS_P2;Temp;Humidity;BMP_temperature;BMP_pressure;BME280_temperature;BME280_humidity;BME280_pressure;Samples;Min_cycle;Max_cycle;Signal;HPM_P1;HPM_P2
2023/01/31 00:00:20;;;;;;;10.93;4.10;;;1.80;99.90;;;;;;5100093;28;20306;-79
2023/01/31 00:02:48;;;;;;;7.67;4.30;;;1.80;99.90;;;;;;5094308;28;20241;-78
2023/01/31 00:05:18;;;;;;;6.63;4.10;;;1.80;99.90;;;;;;5093873;28;20299;-79
2023/01/31 00:07:47;;;;;;;9.60;4.23;;;1.80;99.90;;;;;;5094403;28;20187;-77
2023/01/31 00:10:15;;;;;;;9.03;4.30;;;1.80;99.90;;;;;;5094462;28;20207;-78
2023/01/31 00:12:44;;;;;;;7.50;4.33;;;1.80;99.90;;;;;;5099173;28;20206;-79
2023/01/31 00:15:15;;;;;;;10.30;4.60;;;1.80;99.90;;;;;;5094270;28;20217;-79
2023/01/31 00:17:44;;;;;;;8.10;4.27;;;1.80;99.90;;;;;;5094050;28;20295;-78
2023/01/31 00:20:13;;;;;;;7.50;4.27;;;1.80;99.90;;;;;;5094098;28;20206;-79
2023/01/31 00:22:41;;;;;;;6.80;4.40;;;1.80;99.90;;;;;;5093539;28;20695;-77
2023/01/31 00:25:10;;;;;;;8.90;4.10;;;1.80;99.90;;;;;;5093707;28;20225;-79
2023/01/31 00:27:38;;;;;;;9.10;4.40;;;1.90;99.90;;;;;;5093947;28;20211;-77
2023/01/31 00:30:09;;;;;;;8.00;4.00;;;1.80;99.90;;;;;;5093595;28;20202;-77
2023/01/31 00:32:37;;;;;;;8.50;4.40;;;1.90;99.90;;;;;;5093375;28;20187;-79
2023/01/31 00:35:08;;;;;;;9.43;4.70;;;1.80;99.90;;;;;;5093574;28;20702;-79
2023/01/31 00:37:36;;;;;;;7.33;4.23;;;1.90;99.90;;;;;;5093682;28;20223;-79
2023/01/31 00:40:06;;;;;;;8.67;4.63;;;1.90;99.90;;;;;;5093071;28;20237;-78
2023/01/31 00:42:34;;;;;;;7.77;4.17;;;1.90;99.90;;;;;;5093573;28;20305;-78
2023/01/31 00:45:03;;;;;;;6.10;3.87;;;1.90;99.90;;;;;;5093507;28;20211;-79
2023/01/31 00:47:31;;;;;;;8.27;4.53;;;1.90;99.90;;;;;;5093493;28;20288;-79
2023/01/31 00:49:59;;;;;;;9.23;4.40;;;1.90;99.90;;;;;;5093744;28;20211;-80
2023/01/31 00:52:29;;;;;;;7.87;4.03;;;1.80;99.90;;;;;;5093182;28;20568;-78
2023/01/31 00:54:57;;;;;;;6.70;3.97;;;1.90;99.90;;;;;;5093571;28;20211;-78
2023/01/31 00:57:25;;;;;;;8.10;4.63;;;1.80;99.90;;;;;;5093724;28;20225;-80
2023/01/31 00:59:53;;;;;;;9.23;4.33;;;1.80;99.90;;;;;;5093882;28;20306;-79
2023/01/31 01:02:21;;;;;;;9.70;4.03;;;1.80;99.90;;;;;;5092753;28;20665;-77
2023/01/31 01:04:49;;;;;;;7.60;3.97;;;1.80;99.90;;;;;;5093319;28;20569;-77
2023/01/31 01:07:17;;;;;;;9.53;4.50;;;1.80;99.90;;;;;;5093107;28;20223;-79
2023/01/31 01:09:47;;;;;;;9.50;4.00;;;1.80;99.90;;;;;;5092910;28;20210;-78
2023/01/31 01:12:15;;;;;;;9.40;4.03;;;1.80;99.90;;;;;;5093486;28;20577;-78
2023/01/31 01:14:43;;;;;;;9.73;4.10;;;1.80;99.90;;;;;;5092987;28;20207;-79
2023/01/31 01:17:11;;;;;;;9.47;4.50;;;1.80;99.90;;;;;;5092724;28;20219;-77
2023/01/31 01:19:39;;;;;;;5.63;3.80;;;1.80;99.90;;;;;;5092944;28;20211;-78
2023/01/31 01:22:07;;;;;;;8.47;4.60;;;1.80;99.90;;;;;;5092184;28;20668;-79
2023/01/31 01:24:35;;;;;;;8.40;4.20;;;1.80;99.90;;;;;;5093028;28;20265;-79
2023/01/31 01:27:05;;;;;;;6.70;3.80;;;1.80;99.90;;;;;;5092223;28;20203;-77
2023/01/31 01:29:33;;;;;;;9.70;4.33;;;1.80;99.90;;;;;;5092577;28;20242;-79
2023/01/31 01:32:02;;;;;;;6.83;4.07;;;1.80;99.90;;;;;;5092249;28;20554;-78
2023/01/31 01:34:34;;;;;;;10.80;4.13;;;1.80;99.90;;;;;;5092507;28;20298;-78
2023/01/31 01:37:10;;;;;;;6.93;3.87;;;1.80;99.90;;;;;;5092229;28;20737;-79
2023/01/31 01:39:39;;;;;;;7.77;4.23;;;1.80;99.90;;;;;;5092676;28;20205;-79
2023/01/31 01:42:15;;;;;;;7.70;3.87;;;1.80;99.90;;;;;;5092095;28;20614;-78
2023/01/31 01:44:49;;;;;;;8.40;4.27;;;1.70;99.90;;;;;;5092963;28;20198;-79
2023/01/31 01:47:28;;;;;;;6.90;3.97;;;1.70;99.90;;;;;;5113052;28;20428;-79
2023/01/31 01:50:02;;;;;;;7.87;4.40;;;1.70;99.90;;;;;;5112489;28;20206;-79
2023/01/31 01:52:35;;;;;;;11.87;4.27;;;1.70;99.90;;;;;;5112522;28;20214;-79
2023/01/31 01:55:11;;;;;;;7.47;4.50;;;1.70;99.90;;;;;;5111467;28;20202;-77
2023/01/31 01:57:44;;;;;;;9.17;4.70;;;1.70;99.90;;;;;;5112781;28;20634;-77
2023/01/31 02:00:15;;;;;;;7.47;4.33;;;1.70;99.90;;;;;;5112457;28;20202;-79
2023/01/31 02:02:47;;;;;;;7.47;4.50;;;1.70;99.90;;;;;;5109983;28;20531;-79
2023/01/31 02:05:20;;;;;;;8.70;4.70;;;1.70;99.90;;;;;;5105250;28;20288;-79
2023/01/31 02:07:49;;;;;;;7.43;4.50;;;1.60;99.90;;;;;;5112399;28;20244;-77
2023/01/31 02:10:22;;;;;;;8.93;4.40;;;1.60;99.90;;;;;;5112776;28;20202;-78
2023/01/31 02:12:52;;;;;;;6.53;4.50;;;1.60;99.90;;;;;;5097723;28;20540;-79
2023/01/31 02:15:21;;;;;;;7.73;5.17;;;1.60;99.90;;;;;;5092362;28;20206;-78
2023/01/31 02:17:49;;;;;;;8.17;4.60;;;1.60;99.90;;;;;;5091952;28;20330;-79
2023/01/31 02:20:32;;;;;;;10.27;5.13;;;1.60;99.90;;;;;;5091854;28;20245;-77
2023/01/31 02:23:15;;;;;;;6.50;4.70;;;1.60;99.90;;;;;;5112010;28;20214;-79
2023/01/31 02:26:16;;;;;;;10.27;5.50;;;1.60;99.90;;;;;;5112606;28;20428;-77
2023/01/31 02:29:34;;;;;;;9.70;5.20;;;1.60;99.90;;;;;;5103165;28;20195;-79
2023/01/31 02:32:26;;;;;;;9.50;5.10;;;1.60;99.90;;;;;;5087017;28;20232;-77
2023/01/31 02:35:09;;;;;;;9.53;5.37;;;1.60;99.90;;;;;;5091477;28;20700;-78
2023/01/31 02:37:44;;;;;;;9.20;5.30;;;1.60;99.90;;;;;;5094625;28;20901;-77
2023/01/31 02:40:20;;;;;;;8.80;5.40;;;1.60;99.90;;;;;;5112053;28;20672;-77
2023/01/31 02:42:59;;;;;;;8.20;5.40;;;1.60;99.90;;;;;;5111839;28;20222;-79
2023/01/31 02:45:36;;;;;;;8.23;5.93;;;1.60;99.90;;;;;;5105794;28;20209;-79
2023/01/31 02:48:15;;;;;;;9.97;5.70;;;1.60;99.90;;;;;;5073679;28;20281;-78
2023/01/31 02:50:48;;;;;;;9.93;5.73;;;1.60;99.90;;;;;;5091983;28;20447;-77
2023/01/31 02:53:24;;;;;;;13.17;5.93;;;1.60;99.90;;;;;;5091098;28;20683;-78
2023/01/31 02:56:16;;;;;;;11.13;5.60;;;1.60;99.90;;;;;;5111429;28;20621;-77
2023/01/31 02:58:52;;;;;;;9.57;6.10;;;1.60;99.90;;;;;;5115595;28;20247;-79
2023/01/31 03:01:24;;;;;;;10.00;6.00;;;1.50;99.90;;;;;;5116374;28;20194;-78
2023/01/31 03:03:57;;;;;;;9.40;5.60;;;1.50;99.90;;;;;;5112046;28;20203;-79
2023/01/31 03:07:00;;;;;;;10.83;5.73;;;1.50;99.90;;;;;;5095913;28;20637;-81
2023/01/31 03:09:44;;;;;;;9.83;6.03;;;1.50;99.90;;;;;;5095991;28;20220;-79
2023/01/31 03:12:30;;;;;;;9.57;5.70;;;1.50;99.90;;;;;;5095089;28;20203;-79
2023/01/31 03:15:25;;;;;;;8.70;5.37;;;1.50;99.90;;;;;;5095379;28;20436;-77
2023/01/31 03:18:00;;;;;;;12.47;5.80;;;1.50;99.90;;;;;;5088891;28;20237;-79
2023/01/31 03:20:34;;;;;;;9.63;5.70;;;1.50;99.90;;;;;;5095361;28;20199;-79
2023/01/31 03:23:06;;;;;;;9.27;5.30;;;1.60;99.90;;;;;;5095215;28;20214;-78
2023/01/31 03:25:37;;;;;;;9.33;5.83;;;1.50;99.90;;;;;;5095174;28;20577;-78
2023/01/31 03:28:10;;;;;;;10.67;5.60;;;1.60;99.90;;;;;;5095469;28;20252;-77
2023/01/31 03:30:45;;;;;;;10.40;5.30;;;1.60;99.90;;;;;;5095012;28;20203;-80
2023/01/31 03:33:19;;;;;;;10.27;5.83;;;1.60;99.90;;;;;;5094562;28;20706;-79
2023/01/31 03:35:55;;;;;;;8.60;5.50;;;1.50;99.90;;;;;;5094924;28;20652;-79
2023/01/31 03:38:30;;;;;;;10.67;5.47;;;1.50;99.90;;;;;;5094465;28;20215;-78
2023/01/31 03:41:02;;;;;;;10.97;5.50;;;1.50;99.90;;;;;;5098406;28;20200;-80
2023/01/31 03:43:37;;;;;;;9.57;5.10;;;1.60;99.90;;;;;;5114247;28;20206;-78
2023/01/31 03:46:09;;;;;;;9.93;5.30;;;1.50;99.90;;;;;;5106105;28;20210;-79
2023/01/31 03:48:41;;;;;;;8.93;5.27;;;1.50;99.90;;;;;;5094680;28;20214;-79
2023/01/31 03:51:17;;;;;;;11.37;5.53;;;1.50;99.90;;;;;;5094848;28;20187;-79
2023/01/31 03:53:49;;;;;;;10.87;5.50;;;1.50;99.90;;;;;;5108885;28;20208;-78
2023/01/31 03:56:20;;;;;;;9.50;5.83;;;1.50;99.90;;;;;;5096415;28;20465;-79
2023/01/31 03:58:54;;;;;;;10.53;5.50;;;1.50;99.90;;;;;;5096438;28;20309;-78
2023/01/31 04:01:25;;;;;;;8.13;5.53;;;1.50;99.90;;;;;;5094579;28;20187;-79
2023/01/31 04:03:58;;;;;;;10.53;5.53;;;1.40;99.90;;;;;;5093932;28;20229;-80
2023/01/31 04:06:28;;;;;;;10.17;5.43;;;1.40;99.90;;;;;;5093582;28;20223;-78
2023/01/31 04:08:56;;;;;;;12.20;5.87;;;1.40;99.90;;;;;;5094127;28;20441;-79
2023/01/31 04:11:27;;;;;;;10.60;5.90;;;1.40;99.90;;;;;;5094465;28;20282;-80
2023/01/31 04:13:55;;;;;;;9.47;6.07;;;1.40;99.90;;;;;;5098309;27;20457;-78
2023/01/31 04:16:23;;;;;;;11.53;5.70;;;1.40;99.90;;;;;;5094504;28;20456;-78
2023/01/31 04:18:52;;;;;;;10.90;6.17;;;1.40;99.90;;;;;;5093968;28;20227;-79
2023/01/31 04:21:20;;;;;;;11.97;6.30;;;1.30;99.90;;;;;;5095574;28;20210;-78
2023/01/31 04:23:49;;;;;;;8.33;5.60;;;1.30;99.90;;;;;;5114037;28;20603;-77
2023/01/31 04:26:17;;;;;;;10.43;5.80;;;1.30;99.90;;;;;;5111112;28;20240;-79
2023/01/31 04:28:45;;;;;;;10.43;5.63;;;1.30;99.90;;;;;;5096400;28;20485;-78
2023/01/31 04:31:14;;;;;;;8.50;5.73;;;1.30;99.90;;;;;;5093771;28;20207;-78
2023/01/31 04:33:43;;;;;;;8.47;5.33;;;1.30;99.90;;;;;;5092844;28;20260;-80
2023/01/31 04:36:11;;;;;;;8.63;5.10;;;1.30;99.90;;;;;;5093968;28;20468;-78
2023/01/31 04:38:39;;;;;;;9.73;5.73;;;1.30;99.90;;;;;;5093773;28;20572;-78
2023/01/31 04:41:08;;;;;;;11.73;5.90;;;1.30;99.90;;;;;;5094012;28;20257;-79
2023/01/31 04:43:37;;;;;;;11.47;6.40;;;1.20;99.90;;;;;;5092827;28;20472;-78
2023/01/31 04:46:05;;;;;;;10.93;5.90;;;1.20;99.90;;;;;;5094023;28;20217;-77
2023/01/31 04:48:33;;;;;;;9.27;5.93;;;1.20;99.90;;;;;;5093750;28;20212;-78
2023/01/31 04:51:01;;;;;;;9.43;5.90;;;1.20;99.90;;;;;;5096248;28;20210;-78
2023/01/31 04:53:29;;;;;;;11.70;6.13;;;1.20;99.90;;;;;;5097330;28;20211;-78
2023/01/31 04:55:58;;;;;;;10.20;5.67;;;1.20;99.90;;;;;;5093496;28;20449;-78
2023/01/31 04:58:28;;;;;;;9.03;5.60;;;1.20;99.90;;;;;;5093580;28;20561;-79
2023/01/31 05:00:56;;;;;;;11.53;5.77;;;1.20;99.90;;;;;;5093378;28;20298;-79
2023/01/31 05:03:24;;;;;;;9.43;5.80;;;1.20;99.90;;;;;;5093039;28;20463;-78
2023/01/31 05:05:52;;;;;;;8.00;5.60;;;1.20;99.90;;;;;;5093464;28;20443;-79
2023/01/31 05:08:20;;;;;;;9.43;5.70;;;1.10;99.90;;;;;;5093479;28;20210;-79
2023/01/31 05:10:48;;;;;;;11.23;6.00;;;1.10;99.90;;;;;;5093183;28;20297;-79
2023/01/31 05:13:17;;;;;;;11.83;5.60;;;1.10;99.90;;;;;;5092667;28;20725;-78
2023/01/31 05:15:49;;;;;;;11.63;5.80;;;1.10;99.90;;;;;;5093120;28;20211;-79
2023/01/31 05:18:17;;;;;;;8.97;5.50;;;1.10;99.90;;;;;;5093485;28;20430;-80
2023/01/31 05:20:45;;;;;;;10.20;5.47;;;1.10;99.90;;;;;;5100374;28;20456;-79
2023/01/31 05:23:13;;;;;;;10.07;5.47;;;1.10;99.90;;;;;;5114049;28;20314;-79
2023/01/31 05:25:41;;;;;;;9.37;5.23;;;1.10;99.90;;;;;;5112081;28;20384;-79
2023/01/31 05:28:10;;;;;;;11.97;5.63;;;1.10;99.90;;;;;;5113684;28;20448;-79
2023/01/31 05:30:39;;;;;;;9.90;5.50;;;1.00;99.90;;;;;;5113456;28;20212;-79
2023/01/31 05:33:09;;;;;;;10.23;5.47;;;1.00;99.90;;;;;;5104751;28;20206;-78
2023/01/31 05:35:38;;;;;;;9.93;5.70;;;1.10;99.90;;;;;;5100387;28;20234;-79
2023/01/31 05:38:06;;;;;;;10.27;5.60;;;1.10;99.90;;;;;;5113420;28;20210;-81
2023/01/31 05:40:34;;;;;;;11.53;5.50;;;1.00;99.90;;;;;;5111239;28;20885;-78
2023/01/31 05:43:02;;;;;;;13.93;6.00;;;1.00;99.90;;;;;;5113192;28;20470;-79
2023/01/31 05:45:31;;;;;;;13.13;5.67;;;1.00;99.90;;;;;;5109495;28;20528;-79
2023/01/31 05:47:59;;;;;;;10.93;6.03;;;1.00;99.90;;;;;;5092326;28;20502;-78
2023/01/31 05:50:29;;;;;;;8.80;5.43;;;1.00;99.90;;;;;;5104858;28;20207;-78
2023/01/31 05:52:59;;;;;;;10.73;5.80;;;1.00;99.90;;;;;;5108843;28;20538;-78
2023/01/31 05:55:27;;;;;;;12.77;6.07;;;1.00;99.90;;;;;;5092122;28;20514;-80
2023/01/31 05:57:57;;;;;;;8.63;5.57;;;1.00;99.90;;;;;;5091894;28;20672;-79
2023/01/31 06:00:25;;;;;;;11.43;5.90;;;1.00;99.90;;;;;;5092161;28;20492;-78
2023/01/31 06:02:56;;;;;;;10.37;5.53;;;1.00;99.90;;;;;;5091853;28;20469;-78
2023/01/31 06:05:24;;;;;;;11.77;5.50;;;0.90;99.90;;;;;;5092149;28;20430;-77
2023/01/31 06:07:54;;;;;;;8.67;5.47;;;0.90;99.90;;;;;;5091942;28;20534;-78
2023/01/31 06:10:23;;;;;;;9.63;5.70;;;0.90;99.90;;;;;;5091978;28;20587;-77
2023/01/31 06:12:51;;;;;;;9.67;5.67;;;0.90;99.90;;;;;;5092039;28;20444;-79
2023/01/31 06:15:19;;;;;;;10.90;5.73;;;0.90;99.90;;;;;;5101073;28;20463;-79
2023/01/31 06:17:48;;;;;;;12.43;5.63;;;0.90;99.90;;;;;;5112745;28;20528;-79
2023/01/31 06:20:16;;;;;;;12.60;5.20;;;0.90;99.90;;;;;;5112770;28;20490;-78
2023/01/31 06:22:45;;;;;;;11.47;6.00;;;0.90;99.90;;;;;;5108254;28;20474;-78
2023/01/31 06:25:14;;;;;;;11.63;6.23;;;0.90;99.90;;;;;;5112439;28;20486;-78
2023/01/31 06:27:43;;;;;;;11.70;6.23;;;0.90;99.90;;;;;;5110653;28;20237;-76
2023/01/31 06:30:12;;;;;;;13.67;6.27;;;0.90;99.90;;;;;;5113091;28;20446;-79
2023/01/31 06:32:40;;;;;;;12.40;6.37;;;0.90;99.90;;;;;;5116396;28;20216;-77
2023/01/31 06:35:09;;;;;;;10.77;6.10;;;0.90;99.90;;;;;;5103499;28;20456;-76
2023/01/31 06:37:37;;;;;;;11.60;5.83;;;0.90;99.90;;;;;;5105159;28;20981;-79
2023/01/31 06:40:06;;;;;;;13.87;6.07;;;0.90;99.90;;;;;;5118075;28;20545;-77
2023/01/31 06:42:35;;;;;;;13.00;6.17;;;0.90;99.90;;;;;;5098461;28;20951;-77
2023/01/31 06:45:04;;;;;;;11.67;6.10;;;0.90;99.90;;;;;;5098689;28;20798;-78
2023/01/31 06:47:32;;;;;;;11.43;5.57;;;0.90;99.90;;;;;;5098511;28;20703;-77
2023/01/31 06:50:00;;;;;;;9.37;5.50;;;0.90;99.90;;;;;;5117607;28;20612;-78
2023/01/31 06:52:28;;;;;;;13.43;6.17;;;1.00;99.90;;;;;;5109717;28;20202;-77
2023/01/31 06:54:57;;;;;;;13.37;5.87;;;1.00;99.90;;;;;;5098888;28;20476;-78
2023/01/31 06:57:25;;;;;;;10.80;5.43;;;1.00;99.90;;;;;;5098735;28;20206;-77
2023/01/31 06:59:55;;;;;;;10.30;5.47;;;1.00;99.90;;;;;;5098415;28;20476;-77
2023/01/31 07:02:23;;;;;;;10.70;5.33;;;1.00;99.90;;;;;;5097778;28;20217;-79
2023/01/31 07:04:51;;;;;;;11.87;4.90;;;1.00;99.90;;;;;;5098534;28;20862;-77
2023/01/31 07:07:20;;;;;;;13.50;4.93;;;1.00;99.90;;;;;;5099041;28;20211;-76
2023/01/31 07:09:48;;;;;;;12.57;5.40;;;1.10;99.90;;;;;;5098819;28;20202;-79
2023/01/31 07:12:16;;;;;;;10.40;5.13;;;1.10;99.90;;;;;;5097940;28;20449;-77
2023/01/31 07:14:44;;;;;;;8.83;4.80;;;1.10;99.90;;;;;;5098398;28;20856;-77
2023/01/31 07:17:13;;;;;;;9.67;4.87;;;1.10;99.90;;;;;;5098252;28;20461;-80
2023/01/31 07:19:41;;;;;;;10.40;4.63;;;1.10;99.90;;;;;;5098068;28;20297;-78
2023/01/31 07:22:09;;;;;;;9.37;4.67;;;1.20;99.90;;;;;;5097839;28;20824;-77
2023/01/31 07:24:38;;;;;;;11.97;4.77;;;1.20;99.90;;;;;;5098206;28;20244;-79
2023/01/31 07:27:06;;;;;;;8.70;4.60;;;1.20;99.90;;;;;;5098573;28;20210;-77
2023/01/31 07:29:34;;;;;;;16.70;5.00;;;1.20;99.90;;;;;;5097978;28;20687;-79
2023/01/31 07:32:05;;;;;;;10.97;4.47;;;1.20;99.90;;;;;;5098123;28;20515;-78
2023/01/31 07:34:34;;;;;;;12.63;5.07;;;1.30;99.90;;;;;;5098306;28;20862;-79
2023/01/31 07:37:04;;;;;;;9.57;4.77;;;1.30;99.90;;;;;;5097738;28;20202;-79
2023/01/31 07:39:32;;;;;;;9.50;4.60;;;1.30;99.90;;;;;;5097812;28;20206;-78
2023/01/31 07:42:00;;;;;;;9.67;4.40;;;1.30;99.90;;;;;;5095488;28;20487;-79
2023/01/31 07:44:28;;;;;;;13.40;4.97;;;1.30;99.90;;;;;;5094758;28;20297;-77
2023/01/31 07:46:56;;;;;;;9.83;4.40;;;1.40;99.90;;;;;;5099055;28;20467;-79
2023/01/31 07:49:25;;;;;;;9.57;4.37;;;1.40;99.90;;;;;;5115358;28;20216;-78
2023/01/31 07:51:54;;;;;;;7.37;4.07;;;1.40;99.90;;;;;;5114993;28;20210;-80
2023/01/31 07:54:22;;;;;;;10.13;4.70;;;1.40;99.90;;;;;;5113692;28;20206;-77
2023/01/31 07:56:50;;;;;;;11.60;4.77;;;1.40;99.90;;;;;;5114855;28;20288;-77
2023/01/31 07:59:20;;;;;;;10.53;5.30;;;1.40;99.90;;;;;;5114749;28;20456;-77
2023/01/31 08:04:34;;;;;;;10.57;4.60;;;1.40;99.90;;;;;;5104815;28;20980;-78
2023/01/31 08:07:05;;;;;;;9.10;4.53;;;1.40;99.90;;;;;;5094642;28;20453;-78
2023/01/31 08:09:33;;;;;;;11.33;4.50;;;1.50;99.90;;;;;;5094204;28;20195;-77
2023/01/31 08:12:02;;;;;;;10.50;4.53;;;1.50;99.90;;;;;;5094027;28;20541;-78
2023/01/31 08:14:30;;;;;;;10.20;5.10;;;1.50;99.90;;;;;;5094482;28;20206;-78
2023/01/31 08:16:58;;;;;;;10.07;5.07;;;1.60;99.90;;;;;;5094607;28;20215;-77
2023/01/31 08:19:26;;;;;;;11.57;4.93;;;1.50;99.90;;;;;;5095065;28;20211;-77
2023/01/31 08:21:54;;;;;;;9.47;4.80;;;1.60;99.90;;;;;;5094215;28;20239;-77
2023/01/31 08:24:24;;;;;;;12.73;4.80;;;1.70;99.90;;;;;;5094673;28;20320;-79
2023/01/31 08:26:52;;;;;;;9.87;4.87;;;1.70;99.90;;;;;;5094303;28;20207;-79
2023/01/31 08:29:21;;;;;;;11.43;4.90;;;1.80;99.90;;;;;;5094078;28;20211;-77
2023/01/31 08:31:49;;;;;;;10.33;4.47;;;1.80;99.90;;;;;;5093806;28;20657;-77
2023/01/31 08:34:19;;;;;;;9.80;4.47;;;1.90;99.90;;;;;;5094200;28;20685;-77
2023/01/31 08:36:49;;;;;;;11.23;4.60;;;1.90;99.90;;;;;;5093703;28;20211;-78
2023/01/31 08:39:17;;;;;;;10.40;4.60;;;2.00;99.90;;;;;;5093778;28;20221;-79
2023/01/31 08:41:46;;;;;;;11.53;4.47;;;2.00;99.90;;;;;;5093591;28;20230;-80
2023/01/31 08:44:14;;;;;;;8.67;4.03;;;2.00;99.90;;;;;;5093501;28;20213;-77
2023/01/31 08:46:44;;;;;;;7.87;4.00;;;2.20;99.90;;;;;;5101785;28;20202;-77
2023/01/31 08:49:14;;;;;;;9.80;4.73;;;2.40;99.90;;;;;;5093274;28;20214;-77
2023/01/31 08:51:42;;;;;;;8.97;4.20;;;2.60;99.90;;;;;;5093161;28;20242;-77
2023/01/31 08:54:11;;;;;;;10.03;4.10;;;2.80;99.90;;;;;;5092026;28;20207;-77
2023/01/31 08:56:40;;;;;;;10.93;4.17;;;3.40;99.90;;;;;;5093303;28;20256;-78
2023/01/31 08:59:10;;;;;;;8.37;3.43;;;4.70;99.90;;;;;;5093564;28;20280;-78
2023/01/31 09:01:41;;;;;;;7.70;3.27;;;5.60;99.90;;;;;;5092987;28;20229;-78
2023/01/31 09:04:09;;;;;;;9.03;3.17;;;6.60;99.90;;;;;;5092887;28;20202;-79
2023/01/31 09:06:37;;;;;;;12.03;3.70;;;7.30;99.90;;;;;;5093361;28;20315;-76
2023/01/31 09:09:05;;;;;;;8.97;3.40;;;8.50;99.90;;;;;;5093396;28;20203;-77
2023/01/31 09:11:34;;;;;;;6.83;3.07;;;9.00;99.90;;;;;;5093986;28;20206;-76
2023/01/31 09:14:03;;;;;;;7.60;3.10;;;9.00;99.90;;;;;;5113267;28;20221;-78
2023/01/31 09:16:32;;;;;;;9.33;3.20;;;10.20;99.90;;;;;;5113142;28;20210;-77
2023/01/31 09:19:00;;;;;;;7.53;3.10;;;10.10;99.90;;;;;;5113637;28;20297;-77
2023/01/31 09:21:29;;;;;;;8.00;3.10;;;9.20;99.90;;;;;;5093577;28;20596;-78
2023/01/31 09:24:01;;;;;;;6.67;3.03;;;8.20;99.90;;;;;;5093011;28;20238;-78
2023/01/31 09:26:30;;;;;;;7.27;3.20;;;8.60;99.90;;;;;;5092836;28;20334;-78
2023/01/31 09:29:00;;;;;;;6.87;2.70;;;7.80;99.90;;;;;;5092770;28;20676;-77
2023/01/31 09:31:29;;;;;;;6.97;3.07;;;8.60;99.90;;;;;;5092554;28;20653;-76
2023/01/31 09:33:59;;;;;;;9.10;3.07;;;8.40;99.90;;;;;;5092739;28;20275;-77
2023/01/31 09:36:28;;;;;;;9.57;3.00;;;8.00;99.90;;;;;;5092708;28;20203;-77
2023/01/31 09:38:58;;;;;;;9.47;3.13;;;7.90;99.90;;;;;;5092635;28;20272;-77
2023/01/31 09:41:32;;;;;;;8.43;3.17;;;8.40;99.90;;;;;;5092037;28;20226;-78
2023/01/31 09:44:04;;;;;;;7.67;3.00;;;8.80;99.90;;;;;;5096508;28;20209;-76
2023/01/31 09:46:36;;;;;;;9.33;3.40;;;8.90;99.90;;;;;;5110099;28;20187;-77
2023/01/31 09:49:10;;;;;;;8.10;3.10;;;8.70;99.90;;;;;;5092283;28;20260;-77
2023/01/31 09:51:39;;;;;;;7.27;2.83;;;9.40;99.90;;;;;;5093125;28;20224;-77
2023/01/31 09:54:17;;;;;;;8.73;2.90;;;9.50;99.90;;;;;;5093393;28;20213;-77
2023/01/31 09:56:51;;;;;;;7.40;3.20;;;9.40;99.90;;;;;;5093690;28;20238;-77
2023/01/31 09:59:23;;;;;;;7.10;3.10;;;9.20;99.90;;;;;;5092114;28;20631;-79
2023/01/31 10:01:59;;;;;;;7.17;3.00;;;9.60;99.60;;;;;;5092244;28;20252;-75
2023/01/31 10:04:44;;;;;;;9.80;3.00;;;9.00;99.90;;;;;;5091943;28;20194;-78
2023/01/31 10:07:16;;;;;;;7.87;2.87;;;8.00;99.90;;;;;;5092992;28;20192;-77
2023/01/31 10:09:51;;;;;;;9.40;2.87;;;7.40;99.90;;;;;;5092456;28;20210;-77
2023/01/31 10:12:24;;;;;;;8.93;3.17;;;6.90;99.90;;;;;;5092130;28;20190;-76
2023/01/31 10:14:56;;;;;;;5.73;2.33;;;7.00;99.90;;;;;;5092416;28;20209;-77
2023/01/31 10:17:27;;;;;;;7.03;2.67;;;6.90;99.90;;;;;;5091886;28;20286;-76
2023/01/31 10:20:02;;;;;;;5.70;2.67;;;7.30;99.90;;;;;;5091849;28;20298;-76
2023/01/31 10:22:37;;;;;;;8.97;3.00;;;7.80;99.90;;;;;;5091903;28;20755;-78
2023/01/31 10:25:19;;;;;;;9.10;3.20;;;7.40;99.90;;;;;;5092452;28;20226;-76
2023/01/31 10:27:51;;;;;;;7.13;2.60;;;7.20;99.90;;;;;;5076144;28;20191;-78
2023/01/31 10:30:24;;;;;;;9.60;2.70;;;7.20;99.90;;;;;;5092427;28;20206;-78
2023/01/31 10:32:59;;;;;;;8.83;3.07;;;6.50;99.90;;;;;;5091876;28;20195;-78
2023/01/31 10:35:33;;;;;;;6.70;2.70;;;6.10;99.90;;;;;;5092023;28;20217;-79
2023/01/31 10:38:07;;;;;;;11.70;3.50;;;5.50;99.90;;;;;;5096995;28;20205;-79
2023/01/31 10:40:37;;;;;;;9.97;3.03;;;5.30;99.90;;;;;;5112531;28;20197;-77
2023/01/31 10:43:15;;;;;;;7.37;3.10;;;5.10;99.90;;;;;;5111666;28;20701;-79
2023/01/31 10:45:43;;;;;;;9.70;3.60;;;4.90;99.90;;;;;;5112365;28;20193;-78
2023/01/31 10:48:15;;;;;;;8.23;3.20;;;4.70;99.90;;;;;;5099772;28;20202;-78
2023/01/31 10:50:54;;;;;;;7.97;3.30;;;4.60;99.90;;;;;;5094458;28;20215;-78
2023/01/31 10:53:35;;;;;;;8.90;2.80;;;4.70;99.90;;;;;;5091999;28;20197;-78
2023/01/31 10:56:05;;;;;;;7.13;3.23;;;4.50;99.90;;;;;;5095649;28;20698;-79
2023/01/31 10:58:35;;;;;;;7.83;3.00;;;4.40;99.90;;;;;;5112437;28;20217;-79
2023/01/31 11:01:07;;;;;;;8.37;3.60;;;4.60;99.90;;;;;;5112150;28;20210;-78
2023/01/31 11:03:35;;;;;;;7.07;3.00;;;4.70;99.90;;;;;;5112549;28;20215;-78
2023/01/31 11:06:05;;;;;;;12.63;3.40;;;4.50;99.90;;;;;;5097580;28;20690;-76
2023/01/31 11:08:36;;;;;;;9.57;3.17;;;4.50;99.90;;;;;;5094586;28;20516;-79
2023/01/31 11:11:07;;;;;;;13.13;4.57;;;4.60;99.90;;;;;;5096955;28;20214;-78
2023/01/31 11:13:36;;;;;;;8.20;3.37;;;4.60;99.90;;;;;;5096442;28;20277;-79
2023/01/31 11:16:09;;;;;;;10.60;3.40;;;4.30;99.90;;;;;;5113835;28;20502;-77
2023/01/31 11:18:43;;;;;;;8.13;2.70;;;4.40;99.90;;;;;;5117115;28;20191;-79
2023/01/31 11:21:19;;;;;;;10.17;3.27;;;4.20;99.90;;;;;;5114098;28;20233;-78
2023/01/31 11:23:49;;;;;;;7.27;3.13;;;4.20;99.90;;;;;;5095374;28;20236;-78
2023/01/31 11:26:27;;;;;;;7.67;3.13;;;4.30;99.90;;;;;;5095818;28;20294;-79
2023/01/31 11:28:55;;;;;;;7.23;3.27;;;4.20;99.90;;;;;;5096495;28;20233;-79
2023/01/31 11:31:30;;;;;;;7.00;2.77;;;4.30;99.90;;;;;;5096128;28;20301;-78
2023/01/31 11:34:00;;;;;;;11.10;3.27;;;4.20;99.90;;;;;;5096034;28;20186;-79
2023/01/31 11:36:41;;;;;;;10.83;2.80;;;4.20;99.90;;;;;;5096350;28;20242;-79
2023/01/31 11:39:27;;;;;;;8.37;2.90;;;4.10;99.90;;;;;;5095053;28;20253;-78
2023/01/31 11:41:56;;;;;;;7.60;2.77;;;4.30;99.90;;;;;;5105166;28;20289;-78
2023/01/31 11:44:24;;;;;;;8.90;2.60;;;4.30;99.90;;;;;;5116078;28;20214;-79
2023/01/31 11:46:55;;;;;;;9.20;2.90;;;4.20;99.90;;;;;;5100689;28;20215;-78
2023/01/31 11:49:29;;;;;;;8.20;2.73;;;4.20;99.90;;;;;;5094892;28;20814;-79
2023/01/31 11:52:02;;;;;;;8.43;2.97;;;4.30;99.90;;;;;;5094440;28;20667;-78
2023/01/31 11:54:34;;;;;;;8.67;3.07;;;4.30;99.90;;;;;;5094489;28;20669;-78
2023/01/31 11:57:02;;;;;;;11.27;2.70;;;4.20;99.90;;;;;;5095633;28;20195;-79
2023/01/31 11:59:31;;;;;;;10.57;2.80;;;4.10;99.90;;;;;;5094934;28;20207;-80
2023/01/31 12:02:01;;;;;;;7.67;2.50;;;4.30;99.90;;;;;;5094999;28;20564;-78
2023/01/31 12:04:39;;;;;;;9.50;3.07;;;4.20;99.90;;;;;;5095123;28;20211;-78
2023/01/31 12:07:23;;;;;;;7.77;3.30;;;4.30;99.90;;;;;;5095520;28;20317;-79
2023/01/31 12:09:51;;;;;;;9.97;3.07;;;4.60;99.90;;;;;;5096918;28;20187;-79
2023/01/31 12:12:28;;;;;;;10.60;3.10;;;4.70;99.90;;;;;;5096699;28;20294;-80
2023/01/31 12:15:00;;;;;;;7.00;2.80;;;4.50;99.90;;;;;;5097289;28;20218;-77
2023/01/31 12:17:30;;;;;;;8.40;3.10;;;4.30;99.90;;;;;;5095743;28;20219;-79
2023/01/31 12:20:29;;;;;;;9.60;2.93;;;4.20;99.90;;;;;;5094658;28;20186;-76
2023/01/31 12:23:12;;;;;;;5.57;2.87;;;4.20;99.90;;;;;;5093973;28;20315;-78
2023/01/31 12:25:53;;;;;;;9.53;2.97;;;4.20;99.90;;;;;;5094609;28;20223;-80
2023/01/31 12:28:34;;;;;;;5.93;2.63;;;4.30;99.90;;;;;;5075769;28;20278;-79
2023/01/31 12:31:25;;;;;;;8.00;2.90;;;4.20;99.90;;;;;;5094161;28;20260;-77
2023/01/31 12:34:11;;;;;;;8.70;3.20;;;4.20;99.90;;;;;;5094032;28;20206;-78
2023/01/31 12:36:53;;;;;;;7.77;2.93;;;4.20;99.90;;;;;;5094265;28;20206;-77
2023/01/31 12:39:44;;;;;;;9.50;3.30;;;4.10;99.90;;;;;;5094369;28;20264;-77
2023/01/31 12:42:32;;;;;;;6.93;3.23;;;4.20;99.90;;;;;;5097800;28;20680;-78
2023/01/31 12:45:14;;;;;;;9.83;3.70;;;4.10;99.90;;;;;;5093524;28;20730;-79
2023/01/31 12:48:04;;;;;;;9.70;3.70;;;4.00;99.90;;;;;;5093689;28;20226;-76
2023/01/31 12:50:38;;;;;;;9.20;3.27;;;4.00;99.90;;;;;;5093548;28;20282;-78
2023/01/31 12:53:21;;;;;;;10.30;3.33;;;4.00;99.90;;;;;;5093868;28;20188;-78
2023/01/31 12:56:03;;;;;;;9.00;3.60;;;4.00;99.90;;;;;;5093036;28;20238;-79
2023/01/31 12:58:43;;;;;;;8.53;3.30;;;3.90;99.90;;;;;;5093947;28;20207;-77
2023/01/31 13:01:16;;;;;;;9.97;3.70;;;3.90;99.90;;;;;;5094197;28;20247;-77
2023/01/31 13:03:59;;;;;;;7.87;3.57;;;4.00;99.90;;;;;;5092768;28;20207;-77
2023/01/31 13:06:33;;;;;;;9.60;3.50;;;4.10;99.90;;;;;;5094739;28;20191;-76
2023/01/31 13:09:08;;;;;;;12.80;3.53;;;4.20;99.90;;;;;;5093401;28;20641;-77
2023/01/31 13:11:41;;;;;;;8.70;3.90;;;4.20;99.90;;;;;;5093298;28;20251;-77
2023/01/31 13:14:15;;;;;;;9.30;4.00;;;4.20;99.90;;;;;;5107717;28;20648;-78
2023/01/31 13:16:47;;;;;;;7.60;3.40;;;4.30;99.90;;;;;;5113843;28;20208;-77
2023/01/31 13:19:19;;;;;;;13.23;3.93;;;4.40;99.90;;;;;;5113427;28;20658;-79